createdAt,value
2022-07-26T00:02:56.602Z,10.75
2022-07-26T00:08:11.134Z,9.50
2022-07-26T00:13:13.629Z,13.32
2022-07-26T00:18:17.367Z,14.90
2022-07-26T00:23:22.468Z,14.65
2022-07-26T00:28:25.363Z,9.77
2022-07-26T00:33:28.051Z,17.55
2022-07-26T00:38:30.702Z,13.05
2022-07-26T00:43:33.342Z,12.35
2022-07-26T00:48:37.438Z,10.23
2022-07-26T00:53:39.849Z,9.85
2022-07-26T00:58:45.905Z,9.35
2022-07-26T01:03:53.628Z,12.65
2022-07-26T01:08:56.291Z,17.35
2022-07-26T01:13:58.753Z,14.88
2022-07-26T01:19:01.517Z,16.52
2022-07-26T01:24:04.221Z,11.82
2022-07-26T01:29:06.939Z,12.20
2022-07-26T01:34:09.718Z,16.60
2022-07-26T01:39:12.706Z,19.58
2022-07-26T01:44:15.116Z,12.98
2022-07-26T01:49:17.866Z,12.68
2022-07-26T01:54:22.591Z,14.40
2022-07-26T01:59:27.021Z,12.95
2022-07-26T02:04:47.678Z,15.60
2022-07-26T02:09:50.290Z,9.55
2022-07-26T02:14:53.123Z,13.80
2022-07-26T02:19:55.602Z,12.70
2022-07-26T02:25:02.973Z,13.50
2022-07-26T02:30:07.817Z,13.52
2022-07-26T02:35:10.768Z,12.30
2022-07-26T02:40:29.210Z,12.13
2022-07-26T02:45:31.862Z,11.82
2022-07-26T02:50:34.439Z,12.25
2022-07-26T02:55:36.829Z,11.55
2022-07-26T03:00:39.181Z,13.73
2022-07-26T03:05:41.670Z,13.35
2022-07-26T03:10:44.016Z,14.30
2022-07-26T03:15:46.543Z,16.70
2022-07-26T03:20:48.944Z,16.58
2022-07-26T03:25:51.313Z,18.88
2022-07-26T03:30:53.816Z,16.95
2022-07-26T03:35:56.316Z,18.17
2022-07-26T03:40:58.794Z,24.42
2022-07-26T03:46:01.199Z,15.30
2022-07-26T03:51:03.568Z,23.13
2022-07-26T03:56:24.833Z,17.40
2022-07-26T04:01:35.578Z,17.00
2022-07-26T04:06:38.224Z,19.48
2022-07-26T04:11:40.852Z,17.25
2022-07-26T04:16:43.953Z,13.32
2022-07-26T04:21:49.545Z,14.80
2022-07-26T04:26:52.196Z,15.32
2022-07-26T04:31:54.570Z,18.90
2022-07-26T04:36:56.967Z,16.50
2022-07-26T04:41:59.324Z,22.88
2022-07-26T04:47:01.735Z,17.55
2022-07-26T04:52:04.849Z,21.20
2022-07-26T04:57:10.367Z,14.50
2022-07-26T05:02:15.726Z,12.10
2022-07-26T05:07:20.794Z,12.93
2022-07-26T05:12:23.147Z,12.60
2022-07-26T05:17:26.080Z,10.13
2022-07-26T05:22:29.061Z,13.65
2022-07-26T05:27:31.532Z,18.00
2022-07-26T05:32:34.598Z,17.48
2022-07-26T05:37:37.476Z,16.58
2022-07-26T05:42:40.146Z,12.13
2022-07-26T05:47:42.757Z,17.27
2022-07-26T05:52:45.234Z,15.18
2022-07-26T05:57:50.546Z,13.95
2022-07-26T06:02:53.045Z,13.55
2022-07-26T06:07:55.581Z,14.60
2022-07-26T06:13:01.479Z,12.57
2022-07-26T06:18:04.119Z,26.83
2022-07-26T06:23:07.210Z,13.65
2022-07-26T06:28:11.382Z,9.63
2022-07-26T06:33:14.071Z,11.20
2022-07-26T06:38:16.604Z,8.20
2022-07-26T06:43:19.197Z,11.35
2022-07-26T06:48:21.773Z,13.43
2022-07-26T06:53:24.221Z,11.45
2022-07-26T06:58:27.078Z,11.77
2022-07-26T07:03:32.335Z,8.98
2022-07-26T07:08:34.969Z,11.23
2022-07-26T07:13:37.591Z,14.13
2022-07-26T07:18:40.062Z,9.02
2022-07-26T07:23:42.476Z,8.40
2022-07-26T07:28:45.012Z,9.18
2022-07-26T07:33:53.575Z,13.45
2022-07-26T07:38:56.410Z,10.27
2022-07-26T07:43:59.219Z,8.38
2022-07-26T07:49:01.879Z,9.52
2022-07-26T07:54:05.932Z,9.98
2022-07-26T07:59:09.171Z,9.30
2022-07-26T08:04:12.346Z,11.10
2022-07-26T08:09:22.664Z,9.82
2022-07-26T08:14:25.413Z,11.95
2022-07-26T08:19:31.051Z,10.55
2022-07-26T08:24:47.612Z,9.40
2022-07-26T08:29:50.282Z,8.65
2022-07-26T08:34:52.853Z,10.20
2022-07-26T08:39:55.422Z,12.68
2022-07-26T08:44:58.373Z,8.93
2022-07-26T08:50:00.842Z,12.02
2022-07-26T08:55:03.389Z,10.77
2022-07-26T09:00:38.128Z,11.70
2022-07-26T09:05:41.278Z,9.50
2022-07-26T09:10:43.692Z,9.32
2022-07-26T09:15:46.356Z,11.93
2022-07-26T09:20:48.994Z,9.35
2022-07-26T09:25:51.525Z,10.77
2022-07-26T09:31:00.601Z,10.60
2022-07-26T09:36:06.826Z,10.93
2022-07-26T09:41:37.541Z,15.10
2022-07-26T09:46:53.461Z,10.45
2022-07-26T09:51:56.109Z,9.75
2022-07-26T09:56:59.051Z,8.63
2022-07-26T10:02:02.247Z,10.18
2022-07-26T10:07:05.243Z,10.18
2022-07-26T10:12:09.954Z,8.98
2022-07-26T10:17:38.198Z,10.68
2022-07-26T10:22:47.401Z,11.05
2022-07-26T10:27:54.999Z,7.73
2022-07-26T10:33:06.920Z,8.10
2022-07-26T10:38:26.649Z,15.38
2022-07-26T10:43:40.656Z,10.70
2022-07-26T10:48:56.991Z,7.55
2022-07-26T10:54:10.596Z,14.60
2022-07-26T10:59:13.346Z,7.63
2022-07-26T11:04:20.340Z,8.60
2022-07-26T11:09:24.137Z,10.65
2022-07-26T11:14:26.933Z,8.80
2022-07-26T11:19:29.871Z,7.80
2022-07-26T11:24:32.447Z,9.73
2022-07-26T11:29:38.701Z,12.65
2022-07-26T11:34:45.598Z,9.30
2022-07-26T11:39:48.028Z,8.98
2022-07-26T11:44:51.346Z,12.43
2022-07-26T11:50:18.400Z,10.45
2022-07-26T11:55:29.679Z,10.23
2022-07-26T12:00:32.227Z,8.65
2022-07-26T12:05:34.719Z,10.77
2022-07-26T12:10:37.392Z,9.55
2022-07-26T12:15:50.841Z,8.60
2022-07-26T12:21:07.819Z,8.15
2022-07-26T12:26:31.414Z,8.50
2022-07-26T12:31:34.667Z,7.63
2022-07-26T12:36:37.237Z,14.10
2022-07-26T12:41:40.787Z,7.90
2022-07-26T12:46:47.030Z,8.90
2022-07-26T12:51:49.724Z,7.93
2022-07-26T12:56:54.730Z,9.25
2022-07-26T13:01:57.314Z,9.13
2022-07-26T13:06:59.901Z,9.10
2022-07-26T13:12:04.156Z,8.40
2022-07-26T13:17:07.537Z,12.45
2022-07-26T13:22:10.948Z,7.50
2022-07-26T13:27:13.592Z,9.55
2022-07-26T13:32:17.821Z,7.65
2022-07-26T13:37:20.260Z,8.38
2022-07-26T13:42:22.853Z,9.27
2022-07-26T13:47:25.358Z,7.45
2022-07-26T13:52:27.925Z,6.88
2022-07-26T13:57:49.098Z,6.55
2022-07-26T14:02:52.995Z,7.90
2022-07-26T14:07:56.865Z,8.18
2022-07-26T14:13:06.089Z,7.88
2022-07-26T14:18:08.648Z,6.72
2022-07-26T14:23:11.140Z,8.48
2022-07-26T14:28:16.299Z,9.25
2022-07-26T14:33:21.948Z,8.57
2022-07-26T14:38:29.610Z,9.20
2022-07-26T14:43:32.661Z,8.07
2022-07-26T14:48:53.460Z,6.25
2022-07-26T14:53:56.807Z,7.95
2022-07-26T14:58:59.171Z,10.50
2022-07-26T15:04:01.651Z,8.15
2022-07-26T15:09:05.036Z,7.32
2022-07-26T15:14:07.780Z,8.05
2022-07-26T15:19:11.605Z,6.13
2022-07-26T15:24:14.860Z,9.38
2022-07-26T15:29:17.377Z,7.60
2022-07-26T15:34:19.873Z,9.85
2022-07-26T15:39:22.346Z,8.00
2022-07-26T15:44:25.734Z,7.38
2022-07-26T15:49:29.028Z,6.07
2022-07-26T15:54:31.542Z,8.50
2022-07-26T15:59:36.590Z,5.38
2022-07-26T16:04:39.042Z,8.48
2022-07-26T16:09:41.598Z,11.57
2022-07-26T16:14:44.080Z,8.45
2022-07-26T16:19:46.450Z,5.00
2022-07-26T16:24:49.175Z,9.07
2022-07-26T16:29:53.909Z,10.77
2022-07-26T16:34:56.370Z,10.55
2022-07-26T16:39:58.908Z,9.10
2022-07-26T16:45:01.336Z,4.38
2022-07-26T16:50:04.605Z,6.53
2022-07-26T16:55:11.372Z,18.27
2022-07-26T17:00:16.499Z,6.50
2022-07-26T17:05:19.075Z,7.35
2022-07-26T17:10:21.864Z,5.75
2022-07-26T17:15:27.649Z,6.32
2022-07-26T17:20:30.557Z,8.25
2022-07-26T17:25:33.319Z,15.13
2022-07-26T17:30:35.948Z,10.48
2022-07-26T17:35:38.563Z,9.85
2022-07-26T17:40:41.189Z,5.68
2022-07-26T17:45:45.347Z,5.28
2022-07-26T17:50:47.933Z,7.20
2022-07-26T17:55:50.301Z,10.98
2022-07-26T18:00:55.673Z,9.38
2022-07-26T18:05:58.184Z,7.30
2022-07-26T18:11:03.309Z,10.57
2022-07-26T18:16:06.536Z,7.00
2022-07-26T18:21:08.968Z,8.10
2022-07-26T18:26:11.413Z,6.30
2022-07-26T18:31:14.013Z,8.70
2022-07-26T18:36:16.765Z,6.28
2022-07-26T18:41:19.421Z,7.78
2022-07-26T18:46:21.869Z,9.88
2022-07-26T18:51:26.597Z,5.22
2022-07-26T18:56:29.607Z,7.32
2022-07-26T19:01:32.058Z,6.07
2022-07-26T19:06:35.342Z,8.23
2022-07-26T19:11:37.968Z,6.88
2022-07-26T19:16:40.489Z,5.53
2022-07-26T19:21:47.248Z,6.90
2022-07-26T19:26:52.107Z,7.35
2022-07-26T19:31:54.648Z,7.25
2022-07-26T19:36:57.149Z,6.65
2022-07-26T19:41:59.812Z,7.28
2022-07-26T19:47:02.196Z,10.25
2022-07-26T19:52:11.728Z,10.52
2022-07-26T19:57:14.461Z,6.35
2022-07-26T20:02:17.934Z,9.45
2022-07-26T20:07:20.689Z,6.40
2022-07-26T20:12:23.155Z,12.65
2022-07-26T20:17:26.541Z,12.00
2022-07-26T20:22:34.929Z,5.68
2022-07-26T20:27:37.502Z,7.78
2022-07-26T20:32:40.646Z,13.38
2022-07-26T20:37:44.057Z,11.30
2022-07-26T20:42:50.056Z,7.25
2022-07-26T20:47:53.929Z,5.65
2022-07-26T20:52:56.488Z,10.73
2022-07-26T20:57:58.899Z,6.95
2022-07-26T21:03:01.669Z,7.13
2022-07-26T21:08:04.734Z,5.30
2022-07-26T21:13:07.298Z,9.45
2022-07-26T21:18:10.120Z,8.85
2022-07-26T21:23:17.792Z,12.00
2022-07-26T21:28:21.519Z,8.75
2022-07-26T21:33:26.932Z,6.97
2022-07-26T21:38:32.469Z,5.35
2022-07-26T21:43:35.163Z,8.32
2022-07-26T21:48:38.594Z,6.55
2022-07-26T21:53:41.239Z,8.93
2022-07-26T21:58:43.648Z,12.40
2022-07-26T22:03:46.132Z,4.50
2022-07-26T22:08:48.605Z,8.50
2022-07-26T22:13:51.280Z,7.47
2022-07-26T22:18:53.776Z,5.32
2022-07-26T22:23:56.277Z,4.93
2022-07-26T22:28:59.782Z,7.47
2022-07-26T22:34:02.748Z,10.05
2022-07-26T22:39:05.221Z,5.53
2022-07-26T22:44:11.572Z,5.07
2022-07-26T22:49:15.023Z,8.30
2022-07-26T22:54:17.670Z,7.65
2022-07-26T22:59:22.057Z,5.85
2022-07-26T23:04:24.445Z,10.93
2022-07-26T23:09:27.208Z,11.05
2022-07-26T23:14:29.630Z,7.30
2022-07-26T23:19:31.984Z,5.97
2022-07-26T23:24:35.336Z,8.52
2022-07-26T23:29:37.872Z,9.18
2022-07-26T23:34:40.264Z,10.80
2022-07-26T23:39:42.801Z,9.75
2022-07-26T23:44:45.257Z,14.32
2022-07-26T23:49:47.672Z,8.80
2022-07-26T23:54:50.148Z,15.73
2022-07-26T23:59:52.501Z,9.55
